METAR Data
IDs: Format: Raw Decoded Include TAF

Data at: 0223 UTC 21 Sep 2021

METAR for:KOZW (Howell/Hardy Arpt, MI, US)
Text:KOZW 210215Z AUTO 16014G19KT 10SM OVC015 22/20 A2998 RMK AO2 T02170195
Temperature: 21.7°C ( 71°F)
Dewpoint: 19.5°C ( 67°F) [RH = 87%]
Pressure (altimeter):29.98 inches Hg (1015.3 mb)
Winds:from the SSE (160 degrees) at 16 MPH (14 knots; 7.2 m/s) gusting to 22 MPH (19 knots; 9.8 m/s)
Visibility:10 or more sm (16+ km)
Ceiling:1500 feet AGL
Clouds: overcast cloud deck at 1500 feet AGL
QC Flag:automated observation with no human augmentation

TAF for:KOZW (Howell/Hardy Arpt, MI, US)
Text:No data found